sim
Sign-in with your pilot id or email,
or register
Callsign
Passwort

Schedule Details

Flight Number: OEO5871
Departure: Hannover Langenhagen Airport (EDDV) at 06:05
Arrival: Fuerteventura Airport (GCFV) at 11:15

Weather Information
Getting current METAR information for EDDV 160220Z 17005KT CAVOK 06/M01 Q1026
Getting current METAR information for GCFV 160230Z AUTO 28005KT 9999 NCD 13/10 Q1018

Schedule Frequency

Route Map